createdAt,value
2022-12-23T00:01:28.520Z,11.40
2022-12-23T00:03:59.363Z,11.40
2022-12-23T00:06:26.537Z,11.40
2022-12-23T00:08:58.756Z,11.40
2022-12-23T00:11:27.298Z,11.40
2022-12-23T00:14:19.959Z,11.40
2022-12-23T00:16:47.621Z,11.40
2022-12-23T00:19:14.394Z,11.40
2022-12-23T00:21:41.155Z,11.40
2022-12-23T00:24:07.931Z,11.40
2022-12-23T00:26:34.625Z,11.40
2022-12-23T00:29:01.382Z,11.40
2022-12-23T00:31:28.206Z,11.40
2022-12-23T00:33:54.968Z,11.40
2022-12-23T00:36:27.954Z,11.40
2022-12-23T00:39:15.024Z,11.40
2022-12-23T00:42:00.553Z,11.40
2022-12-23T00:44:27.359Z,11.40
2022-12-23T00:46:54.156Z,11.30
2022-12-23T00:49:39.679Z,11.30
2022-12-23T00:52:09.667Z,11.40
2022-12-23T00:54:36.703Z,11.40
2022-12-23T00:57:03.678Z,11.40
2022-12-23T00:59:30.644Z,11.40
2022-12-23T01:02:15.950Z,11.30
2022-12-23T01:05:01.313Z,11.30
2022-12-23T01:07:28.173Z,11.40
2022-12-23T01:09:54.907Z,11.40
2022-12-23T01:12:21.656Z,11.30
2022-12-23T01:14:48.744Z,11.30
2022-12-23T01:17:15.686Z,11.30
2022-12-23T01:19:42.626Z,11.30
2022-12-23T01:22:09.402Z,11.30
2022-12-23T01:24:36.139Z,11.30
2022-12-23T01:27:02.880Z,11.30
2022-12-23T01:29:29.849Z,11.30
2022-12-23T01:31:56.923Z,11.30
2022-12-23T01:34:23.821Z,11.30
2022-12-23T01:36:50.720Z,11.30
2022-12-23T01:39:17.438Z,11.30
2022-12-23T01:42:02.994Z,11.30
2022-12-23T01:44:58.099Z,11.30
2022-12-23T01:47:36.339Z,11.30
2022-12-23T01:50:08.364Z,11.30
2022-12-23T01:52:41.839Z,11.30
2022-12-23T01:55:09.926Z,11.30
2022-12-23T01:57:40.788Z,11.30
2022-12-23T02:00:26.868Z,11.30
2022-12-23T02:03:12.485Z,11.30
2022-12-23T02:05:39.552Z,11.30
2022-12-23T02:08:25.592Z,11.30
2022-12-23T02:11:07.839Z,11.20
2022-12-23T02:14:23.944Z,11.30
2022-12-23T02:17:01.981Z,11.30
2022-12-23T02:19:47.283Z,11.30
2022-12-23T02:22:43.309Z,11.30
2022-12-23T02:25:32.631Z,11.20
2022-12-23T02:28:37.020Z,11.20
2022-12-23T02:31:14.319Z,11.20
2022-12-23T02:34:00.534Z,11.20
2022-12-23T02:36:56.261Z,11.20
2022-12-23T02:39:53.811Z,11.20
2022-12-23T02:42:31.663Z,11.20
2022-12-23T02:45:13.778Z,11.20
2022-12-23T02:47:54.283Z,11.20
2022-12-23T02:50:27.928Z,11.20
2022-12-23T02:52:58.591Z,11.20
2022-12-23T02:55:30.173Z,11.20
2022-12-23T02:58:00.671Z,11.10
2022-12-23T03:00:27.689Z,11.10
2022-12-23T03:02:54.893Z,11.10
2022-12-23T03:05:34.565Z,11.10
2022-12-23T03:08:06.654Z,11.10
2022-12-23T03:11:10.536Z,11.10
2022-12-23T03:13:43.352Z,11.10
2022-12-23T03:16:28.733Z,11.10
2022-12-23T03:18:58.583Z,11.10
2022-12-23T03:21:48.010Z,11.00
2022-12-23T03:24:40.628Z,11.00
2022-12-23T03:27:14.838Z,11.10
2022-12-23T03:29:43.972Z,11.00
2022-12-23T03:32:14.484Z,11.10
2022-12-23T03:34:45.770Z,11.10
2022-12-23T03:37:15.826Z,11.10
2022-12-23T03:39:52.079Z,11.00
2022-12-23T03:42:29.319Z,11.00
2022-12-23T03:45:36.440Z,11.00
2022-12-23T03:47:59.148Z,11.00
2022-12-23T03:50:26.836Z,11.00
2022-12-23T03:53:02.503Z,11.00
2022-12-23T03:55:38.765Z,11.00
2022-12-23T03:58:46.983Z,11.00
2022-12-23T04:01:32.599Z,11.00
2022-12-23T04:04:11.646Z,11.00
2022-12-23T04:06:48.966Z,11.00
2022-12-23T04:09:21.846Z,11.00
2022-12-23T04:11:49.492Z,11.00
2022-12-23T04:14:20.187Z,11.00
2022-12-23T04:16:48.647Z,11.00
2022-12-23T04:19:15.566Z,11.00
2022-12-23T04:21:42.290Z,10.90
2022-12-23T04:24:09.149Z,10.90
2022-12-23T04:26:35.855Z,10.90
2022-12-23T04:29:02.619Z,10.90
2022-12-23T04:31:29.452Z,10.90
2022-12-23T04:33:56.601Z,10.90
2022-12-23T04:36:23.499Z,10.90
2022-12-23T04:38:50.196Z,10.90
2022-12-23T04:41:16.971Z,10.90
2022-12-23T04:43:47.772Z,10.80
2022-12-23T04:46:17.816Z,10.80
2022-12-23T04:48:44.609Z,10.80
2022-12-23T04:51:11.312Z,10.80
2022-12-23T04:53:38.255Z,10.80
2022-12-23T04:56:05.112Z,10.80
2022-12-23T04:58:31.885Z,10.80
2022-12-23T05:01:04.631Z,10.80
2022-12-23T05:03:31.599Z,10.80
2022-12-23T05:05:58.511Z,10.80
2022-12-23T05:08:25.589Z,10.80
2022-12-23T05:10:52.562Z,10.80
2022-12-23T05:13:19.288Z,10.80
2022-12-23T05:15:48.860Z,10.80
2022-12-23T05:18:16.040Z,10.80
2022-12-23T05:20:43.275Z,10.70
2022-12-23T05:23:10.066Z,10.70
2022-12-23T05:25:38.043Z,10.70
2022-12-23T05:28:06.109Z,10.70
2022-12-23T05:30:32.827Z,10.70
2022-12-23T05:32:59.757Z,10.70
2022-12-23T05:35:27.819Z,10.70
2022-12-23T05:37:54.659Z,10.60
2022-12-23T05:40:23.705Z,10.60
2022-12-23T05:42:55.891Z,10.60
2022-12-23T05:45:22.919Z,10.60
2022-12-23T05:47:49.641Z,10.60
2022-12-23T05:50:16.504Z,10.60
2022-12-23T05:52:43.183Z,10.60
2022-12-23T05:55:10.162Z,10.60
2022-12-23T05:57:36.886Z,10.60
2022-12-23T06:00:04.878Z,10.60
2022-12-23T06:02:31.788Z,10.60
2022-12-23T06:04:58.642Z,10.60
2022-12-23T06:07:25.357Z,10.70
2022-12-23T06:09:52.055Z,10.60
2022-12-23T06:12:18.803Z,10.70
2022-12-23T06:14:45.589Z,10.70
2022-12-23T06:17:12.340Z,10.70
2022-12-23T06:19:39.043Z,10.70
2022-12-23T06:22:05.734Z,10.70
2022-12-23T06:24:32.460Z,10.70
2022-12-23T06:26:59.231Z,10.70
2022-12-23T06:29:26.065Z,10.70
2022-12-23T06:31:52.863Z,10.70
2022-12-23T06:34:19.571Z,10.70
2022-12-23T06:36:46.287Z,10.70
2022-12-23T06:39:13.088Z,10.70
2022-12-23T06:41:39.880Z,10.70
2022-12-23T06:44:06.790Z,10.70
2022-12-23T06:46:33.593Z,10.70
2022-12-23T06:49:00.311Z,10.70
2022-12-23T06:51:27.111Z,10.70
2022-12-23T06:53:53.869Z,10.70
2022-12-23T06:56:20.711Z,10.70
2022-12-23T06:58:47.600Z,10.70
2022-12-23T07:01:14.445Z,10.70
2022-12-23T07:03:41.308Z,10.70
2022-12-23T07:06:08.255Z,10.70
2022-12-23T07:08:35.057Z,10.70
2022-12-23T07:11:05.846Z,10.70
2022-12-23T07:13:33.341Z,10.70
2022-12-23T07:16:05.653Z,10.70
2022-12-23T07:18:33.557Z,10.70
2022-12-23T07:21:01.975Z,10.70
2022-12-23T07:23:29.064Z,10.70
2022-12-23T07:25:55.874Z,10.80
2022-12-23T07:28:23.621Z,10.80
2022-12-23T07:30:50.401Z,10.80
2022-12-23T07:33:17.363Z,10.70
2022-12-23T07:35:44.080Z,10.70
2022-12-23T07:38:11.036Z,10.70
2022-12-23T07:40:37.717Z,10.70
2022-12-23T07:43:05.643Z,10.80
2022-12-23T07:45:32.407Z,10.70
2022-12-23T07:48:01.063Z,10.70
2022-12-23T07:50:27.922Z,10.80
2022-12-23T07:52:55.685Z,10.70
2022-12-23T07:55:22.791Z,10.80
2022-12-23T07:57:51.116Z,10.80
2022-12-23T08:00:18.604Z,10.70
2022-12-23T08:02:46.258Z,10.80
2022-12-23T08:05:13.672Z,10.80
2022-12-23T08:07:41.122Z,10.80
2022-12-23T08:10:08.638Z,10.80
2022-12-23T08:12:35.354Z,10.80
2022-12-23T08:15:02.091Z,10.80
2022-12-23T08:17:30.264Z,10.80
2022-12-23T08:19:57.397Z,10.80
2022-12-23T08:22:24.480Z,10.80
2022-12-23T08:24:52.586Z,10.80
2022-12-23T08:27:19.681Z,10.80
2022-12-23T08:29:46.493Z,10.80
2022-12-23T08:32:13.248Z,10.70
2022-12-23T08:34:40.047Z,10.80
2022-12-23T08:37:06.956Z,10.80
2022-12-23T08:39:33.754Z,10.80
2022-12-23T08:42:00.516Z,10.80
2022-12-23T08:44:27.983Z,10.80
2022-12-23T08:46:55.457Z,10.80
2022-12-23T08:49:22.797Z,10.80
2022-12-23T08:51:49.682Z,10.80
2022-12-23T08:54:17.491Z,10.80
2022-12-23T08:56:44.205Z,10.80
2022-12-23T08:59:19.001Z,10.80
2022-12-23T09:01:46.824Z,10.80
2022-12-23T09:04:13.737Z,10.90
2022-12-23T09:06:42.996Z,10.80
2022-12-23T09:09:11.867Z,10.80
2022-12-23T09:11:38.982Z,10.90
2022-12-23T09:14:07.229Z,10.90
2022-12-23T09:16:34.190Z,10.80
2022-12-23T09:19:01.120Z,10.90
2022-12-23T09:21:28.117Z,10.90
2022-12-23T09:23:54.855Z,10.90
2022-12-23T09:26:25.312Z,10.90
2022-12-23T09:28:52.902Z,10.90
2022-12-23T09:31:20.745Z,10.90
2022-12-23T09:33:49.147Z,10.90
2022-12-23T09:36:16.177Z,10.90
2022-12-23T09:38:43.099Z,10.90
2022-12-23T09:41:33.594Z,10.90
2022-12-23T09:44:12.773Z,10.90
2022-12-23T09:46:51.628Z,10.90
2022-12-23T09:49:19.691Z,10.90
2022-12-23T09:51:48.827Z,10.90
2022-12-23T09:54:20.607Z,10.90
2022-12-23T09:57:11.623Z,10.90
2022-12-23T09:59:50.136Z,11.00
2022-12-23T10:02:44.936Z,11.00
2022-12-23T10:05:26.514Z,11.00
2022-12-23T10:07:58.929Z,11.00
2022-12-23T10:10:41.127Z,11.00
2022-12-23T10:13:34.909Z,11.00
2022-12-23T10:16:06.829Z,11.10
2022-12-23T10:18:55.630Z,11.10
2022-12-23T10:21:32.211Z,11.10
2022-12-23T10:24:06.464Z,11.10
2022-12-23T10:26:52.402Z,11.10
2022-12-23T10:29:22.272Z,11.10
2022-12-23T10:32:40.298Z,11.20
2022-12-23T10:35:20.087Z,11.20
2022-12-23T10:37:55.686Z,11.10
2022-12-23T10:40:34.992Z,11.10
2022-12-23T10:43:31.406Z,11.20
2022-12-23T10:46:21.752Z,11.20
2022-12-23T10:49:00.510Z,11.20
2022-12-23T10:51:49.685Z,11.20
2022-12-23T10:54:34.985Z,11.20
2022-12-23T10:57:03.435Z,11.20
2022-12-23T10:59:33.344Z,11.20
2022-12-23T11:02:12.449Z,11.20
2022-12-23T11:04:44.854Z,11.20
2022-12-23T11:07:43.563Z,11.20
2022-12-23T11:10:13.133Z,11.30
2022-12-23T11:12:44.631Z,11.20
2022-12-23T11:15:30.598Z,11.30
2022-12-23T11:18:30.349Z,11.30
2022-12-23T11:21:05.575Z,11.30
2022-12-23T11:23:36.658Z,11.30
2022-12-23T11:26:09.761Z,11.30
2022-12-23T11:28:56.184Z,11.30
2022-12-23T11:31:35.382Z,11.30
2022-12-23T11:34:05.955Z,11.30
2022-12-23T11:36:34.203Z,11.30
2022-12-23T11:39:04.211Z,11.30
2022-12-23T11:41:38.997Z,11.30
2022-12-23T11:44:12.166Z,11.30
2022-12-23T11:46:38.971Z,11.30
2022-12-23T11:49:16.164Z,11.30
2022-12-23T11:51:45.134Z,11.30
2022-12-23T11:54:20.579Z,11.30
2022-12-23T11:56:52.479Z,11.30
2022-12-23T11:59:27.956Z,11.30
2022-12-23T12:01:58.085Z,11.30
2022-12-23T12:04:27.587Z,11.30
2022-12-23T12:06:56.803Z,11.30
2022-12-23T12:09:24.784Z,11.30
2022-12-23T12:12:19.268Z,11.30
2022-12-23T12:14:50.582Z,11.30
2022-12-23T12:17:46.695Z,11.30
2022-12-23T12:20:35.873Z,11.30
2022-12-23T12:23:18.613Z,11.30
2022-12-23T12:25:51.631Z,11.30
2022-12-23T12:28:36.943Z,11.30
2022-12-23T12:31:12.672Z,11.30
2022-12-23T12:34:09.196Z,11.30
2022-12-23T12:37:00.960Z,11.30
2022-12-23T12:39:53.137Z,11.30
2022-12-23T12:42:33.934Z,11.30
2022-12-23T12:45:22.686Z,11.20
2022-12-23T12:48:18.183Z,11.30
2022-12-23T12:51:01.238Z,11.30
2022-12-23T12:53:30.430Z,11.30
2022-12-23T12:56:05.214Z,11.20
2022-12-23T12:58:32.189Z,11.30
2022-12-23T13:01:17.215Z,11.20
2022-12-23T13:04:01.807Z,11.20
2022-12-23T13:07:06.927Z,11.20
2022-12-23T13:09:41.368Z,11.30
2022-12-23T13:12:22.686Z,11.20
2022-12-23T13:15:04.400Z,11.20
2022-12-23T13:17:41.651Z,11.20
2022-12-23T13:20:28.280Z,11.20
2022-12-23T13:23:20.835Z,11.20
2022-12-23T13:25:55.690Z,11.20
2022-12-23T13:28:44.725Z,11.20
2022-12-23T13:31:38.191Z,11.20
2022-12-23T13:34:43.957Z,11.20
2022-12-23T13:37:32.234Z,11.20
2022-12-23T13:40:28.010Z,11.20
2022-12-23T13:43:04.852Z,11.20
2022-12-23T13:45:38.607Z,11.20
2022-12-23T13:48:35.335Z,11.20
2022-12-23T13:51:13.209Z,11.20
2022-12-23T13:54:04.855Z,11.20
2022-12-23T13:56:43.947Z,11.20
2022-12-23T13:59:11.962Z,11.20
2022-12-23T14:01:41.679Z,11.20
2022-12-23T14:04:32.131Z,11.30
2022-12-23T14:07:01.138Z,11.20
2022-12-23T14:09:35.475Z,11.30
2022-12-23T14:12:36.687Z,11.30
2022-12-23T14:15:40.365Z,11.30
2022-12-23T14:18:28.777Z,11.30
2022-12-23T14:21:23.213Z,11.30
2022-12-23T14:24:04.573Z,11.30
2022-12-23T14:26:56.377Z,11.30
2022-12-23T14:29:55.590Z,11.30
2022-12-23T14:32:34.303Z,11.30
2022-12-23T14:35:16.714Z,11.30
2022-12-23T14:38:04.406Z,11.30
2022-12-23T14:40:37.307Z,11.30
2022-12-23T14:43:22.269Z,11.30
2022-12-23T14:45:50.428Z,11.30
2022-12-23T14:48:35.784Z,11.30
2022-12-23T14:51:09.804Z,11.30
2022-12-23T14:53:52.352Z,11.30
2022-12-23T14:56:19.033Z,11.30
2022-12-23T14:58:45.691Z,11.30
2022-12-23T15:01:17.635Z,11.30
2022-12-23T15:03:59.087Z,11.30
2022-12-23T15:06:38.589Z,11.30
2022-12-23T15:09:07.512Z,11.30
2022-12-23T15:11:36.161Z,11.30
2022-12-23T15:14:08.440Z,11.30
2022-12-23T15:16:38.605Z,11.30
2022-12-23T15:19:26.500Z,11.30
2022-12-23T15:22:17.232Z,11.30
2022-12-23T15:24:47.760Z,11.30
2022-12-23T15:27:29.356Z,11.30
2022-12-23T15:29:57.502Z,11.30
2022-12-23T15:32:25.363Z,11.30
2022-12-23T15:34:59.944Z,11.30
2022-12-23T15:37:29.670Z,11.30
2022-12-23T15:40:06.158Z,11.30
2022-12-23T15:42:38.664Z,11.30
2022-12-23T15:45:33.240Z,11.30
2022-12-23T15:48:00.254Z,11.30
2022-12-23T15:50:28.386Z,11.20
2022-12-23T15:52:59.843Z,11.20
2022-12-23T15:55:31.974Z,11.20
2022-12-23T15:58:01.215Z,11.20
2022-12-23T16:00:49.777Z,11.20
2022-12-23T16:03:32.930Z,11.20
2022-12-23T16:06:14.713Z,11.20
2022-12-23T16:08:43.103Z,11.20
2022-12-23T16:11:16.779Z,11.10
2022-12-23T16:14:01.526Z,11.20
2022-12-23T16:16:37.512Z,11.20
2022-12-23T16:19:04.598Z,11.20
2022-12-23T16:21:36.622Z,11.20
2022-12-23T16:24:08.607Z,11.20
2022-12-23T16:26:45.028Z,11.10
2022-12-23T16:29:12.072Z,11.20
2022-12-23T16:31:42.890Z,11.20
2022-12-23T16:34:13.366Z,11.10
2022-12-23T16:36:40.153Z,11.20
2022-12-23T16:39:06.889Z,11.20
2022-12-23T16:41:34.213Z,11.20
2022-12-23T16:44:01.520Z,11.20
2022-12-23T16:46:32.056Z,11.20
2022-12-23T16:49:01.261Z,11.20
2022-12-23T16:51:30.432Z,11.20
2022-12-23T16:53:57.660Z,11.10
2022-12-23T16:56:28.366Z,11.20
2022-12-23T16:58:55.141Z,11.20
2022-12-23T17:01:28.102Z,11.10
2022-12-23T17:03:55.931Z,11.10
2022-12-23T17:06:23.688Z,11.20
2022-12-23T17:08:51.408Z,11.20
2022-12-23T17:11:28.461Z,11.20
2022-12-23T17:14:01.387Z,11.20
2022-12-23T17:16:31.073Z,11.20
2022-12-23T17:18:58.729Z,11.20
2022-12-23T17:21:39.599Z,11.20
2022-12-23T17:24:17.971Z,11.20
2022-12-23T17:26:44.701Z,11.20
2022-12-23T17:29:13.007Z,11.20
2022-12-23T17:31:40.753Z,11.20
2022-12-23T17:34:11.854Z,11.20
2022-12-23T17:36:41.033Z,11.20
2022-12-23T17:39:11.258Z,11.20
2022-12-23T17:41:39.585Z,11.20
2022-12-23T17:44:06.917Z,11.20
2022-12-23T17:46:34.077Z,11.30
2022-12-23T17:49:00.813Z,11.30
2022-12-23T17:51:27.684Z,11.30
2022-12-23T17:53:57.984Z,11.40
2022-12-23T17:56:28.158Z,11.40
2022-12-23T17:58:54.899Z,11.50
2022-12-23T18:01:27.458Z,11.50
2022-12-23T18:03:55.295Z,11.50
2022-12-23T18:06:24.276Z,11.50
2022-12-23T18:08:51.306Z,11.60
2022-12-23T18:11:22.797Z,11.60
2022-12-23T18:13:51.607Z,11.70
2022-12-23T18:16:18.444Z,11.70
2022-12-23T18:18:46.810Z,11.70
2022-12-23T18:21:22.539Z,11.70
2022-12-23T18:23:49.751Z,11.70
2022-12-23T18:26:16.715Z,11.70
2022-12-23T18:28:44.275Z,11.70
2022-12-23T18:31:20.091Z,11.70
2022-12-23T18:33:47.607Z,11.70
2022-12-23T18:36:22.526Z,11.70
2022-12-23T18:38:49.535Z,11.70
2022-12-23T18:41:16.249Z,11.70
2022-12-23T18:43:43.006Z,11.80
2022-12-23T18:46:09.745Z,11.80
2022-12-23T18:48:36.514Z,11.80
2022-12-23T18:51:03.312Z,11.80
2022-12-23T18:53:30.015Z,11.80
2022-12-23T18:55:56.913Z,11.80
2022-12-23T18:58:24.517Z,11.80
2022-12-23T19:00:53.089Z,11.80
2022-12-23T19:03:24.794Z,11.80
2022-12-23T19:05:53.158Z,11.80
2022-12-23T19:08:26.284Z,11.80
2022-12-23T19:10:54.337Z,11.80
2022-12-23T19:13:21.129Z,11.80
2022-12-23T19:15:47.922Z,11.80
2022-12-23T19:18:17.341Z,11.80
2022-12-23T19:20:45.385Z,11.80
2022-12-23T19:23:12.751Z,11.70
2022-12-23T19:25:52.472Z,11.80
2022-12-23T19:28:21.699Z,11.70
2022-12-23T19:30:48.748Z,11.70
2022-12-23T19:33:15.959Z,11.70
2022-12-23T19:35:43.377Z,11.70
2022-12-23T19:38:10.517Z,11.70
2022-12-23T19:40:37.242Z,11.70
2022-12-23T19:43:04.204Z,11.70
2022-12-23T19:45:30.898Z,11.70
2022-12-23T19:47:57.631Z,11.70
2022-12-23T19:50:24.388Z,11.70
2022-12-23T19:52:51.616Z,11.70
2022-12-23T19:55:18.394Z,11.70
2022-12-23T19:57:45.215Z,11.70
2022-12-23T20:00:12.656Z,11.80
2022-12-23T20:02:39.413Z,11.80
2022-12-23T20:05:06.460Z,11.80
2022-12-23T20:07:35.889Z,11.80
2022-12-23T20:10:03.380Z,11.80
2022-12-23T20:12:30.178Z,11.80
2022-12-23T20:14:56.977Z,11.80
2022-12-23T20:17:23.775Z,11.80
2022-12-23T20:19:50.496Z,11.80
2022-12-23T20:22:17.161Z,11.80
2022-12-23T20:24:43.946Z,11.80
2022-12-23T20:27:12.545Z,11.80
2022-12-23T20:29:40.732Z,11.80
2022-12-23T20:32:07.418Z,11.80
2022-12-23T20:34:39.254Z,11.80
2022-12-23T20:37:07.392Z,11.80
2022-12-23T20:39:34.970Z,11.80
2022-12-23T20:42:01.727Z,11.80
2022-12-23T20:44:37.243Z,11.80
2022-12-23T20:47:06.156Z,11.80
2022-12-23T20:49:33.237Z,11.80
2022-12-23T20:52:00.091Z,11.70
2022-12-23T20:54:32.533Z,11.70
2022-12-23T20:57:03.940Z,11.70
2022-12-23T20:59:30.758Z,11.70
2022-12-23T21:01:59.202Z,11.70
2022-12-23T21:04:26.406Z,11.70
2022-12-23T21:06:53.123Z,11.70
2022-12-23T21:09:20.132Z,11.70
2022-12-23T21:11:47.629Z,11.70
2022-12-23T21:14:15.629Z,11.70
2022-12-23T21:16:43.028Z,11.70
2022-12-23T21:19:17.996Z,11.70
2022-12-23T21:21:45.437Z,11.70
2022-12-23T21:24:12.224Z,11.70
2022-12-23T21:26:39.321Z,11.70
2022-12-23T21:29:07.757Z,11.70
2022-12-23T21:31:37.575Z,11.70
2022-12-23T21:34:05.162Z,11.70
2022-12-23T21:36:35.014Z,11.70
2022-12-23T21:39:02.127Z,11.70
2022-12-23T21:41:31.195Z,11.60
2022-12-23T21:43:59.579Z,11.60
2022-12-23T21:46:27.859Z,11.60
2022-12-23T21:48:56.716Z,11.60
2022-12-23T21:51:26.625Z,11.60
2022-12-23T21:53:54.907Z,11.60
2022-12-23T21:56:28.213Z,11.50
2022-12-23T21:59:03.106Z,11.50
2022-12-23T22:01:30.972Z,11.50
2022-12-23T22:03:58.242Z,11.50
2022-12-23T22:06:33.614Z,11.40
2022-12-23T22:09:00.334Z,11.40
2022-12-23T22:11:33.111Z,11.40
2022-12-23T22:14:01.557Z,11.40
2022-12-23T22:16:30.056Z,11.40
2022-12-23T22:18:58.508Z,11.40
2022-12-23T22:21:27.196Z,11.30
2022-12-23T22:23:54.735Z,11.40
2022-12-23T22:26:26.058Z,11.30
2022-12-23T22:28:57.796Z,11.30
2022-12-23T22:31:48.855Z,11.30
2022-12-23T22:34:19.267Z,11.30
2022-12-23T22:36:46.797Z,11.30
2022-12-23T22:39:19.984Z,11.30
2022-12-23T22:41:47.717Z,11.30
2022-12-23T22:44:15.091Z,11.30
2022-12-23T22:46:42.094Z,11.30
2022-12-23T22:49:12.943Z,11.30
2022-12-23T22:51:41.330Z,11.30
2022-12-23T22:54:09.022Z,11.30
2022-12-23T22:56:35.787Z,11.30
2022-12-23T22:59:02.604Z,11.30
2022-12-23T23:01:31.638Z,11.30
2022-12-23T23:04:00.601Z,11.30
2022-12-23T23:06:33.068Z,11.30
2022-12-23T23:09:00.758Z,11.30
2022-12-23T23:11:28.239Z,11.20
2022-12-23T23:13:55.960Z,11.30
2022-12-23T23:16:23.943Z,11.30
2022-12-23T23:18:51.174Z,11.20
2022-12-23T23:21:18.492Z,11.30
2022-12-23T23:23:45.568Z,11.20
2022-12-23T23:26:12.564Z,11.20
2022-12-23T23:28:40.151Z,11.30
2022-12-23T23:33:54.829Z,11.20
2022-12-23T23:36:21.619Z,11.20
2022-12-23T23:38:48.382Z,11.20
2022-12-23T23:41:22.239Z,11.20
2022-12-23T23:43:50.200Z,11.20
2022-12-23T23:46:17.000Z,11.10
2022-12-23T23:48:43.843Z,11.10
2022-12-23T23:51:10.634Z,11.20
2022-12-23T23:53:38.223Z,11.10
2022-12-23T23:56:07.197Z,11.20
2022-12-23T23:58:35.014Z,11.20
